createdAt,value
2022-10-23T00:00:19.780Z,70.37
2022-10-23T00:02:53.491Z,70.99
2022-10-23T00:05:21.829Z,70.94
2022-10-23T00:07:53.548Z,71.16
2022-10-23T00:10:22.303Z,71.32
2022-10-23T00:12:49.944Z,71.19
2022-10-23T00:15:20.458Z,70.89
2022-10-23T00:17:47.872Z,70.87
2022-10-23T00:20:16.184Z,70.57
2022-10-23T00:22:43.047Z,70.34
2022-10-23T00:25:10.919Z,70.37
2022-10-23T00:27:39.478Z,70.24
2022-10-23T00:30:07.163Z,69.50
2022-10-23T00:32:34.088Z,69.57
2022-10-23T00:35:01.101Z,69.17
2022-10-23T00:37:30.136Z,69.22
2022-10-23T00:39:57.740Z,68.99
2022-10-23T00:42:24.884Z,69.29
2022-10-23T00:44:51.790Z,68.71
2022-10-23T00:47:18.844Z,68.33
2022-10-23T00:49:45.797Z,68.47
2022-10-23T00:52:14.582Z,68.82
2022-10-23T00:54:43.650Z,68.25
2022-10-23T00:57:15.713Z,68.15
2022-10-23T00:59:43.329Z,68.45
2022-10-23T01:02:10.598Z,67.84
2022-10-23T01:04:38.093Z,67.92
2022-10-23T01:07:35.779Z,68.56
2022-10-23T01:10:50.654Z,70.27
2022-10-23T01:13:54.858Z,71.90
2022-10-23T01:16:41.117Z,72.03
2022-10-23T01:19:45.695Z,71.91
2022-10-23T01:23:06.861Z,71.58
2022-10-23T01:25:53.580Z,70.85
2022-10-23T01:28:51.999Z,70.19
2022-10-23T01:31:59.114Z,69.74
2022-10-23T01:34:37.311Z,69.87
2022-10-23T01:37:11.447Z,69.52
2022-10-23T01:39:47.549Z,69.69
2022-10-23T01:42:36.243Z,68.93
2022-10-23T01:45:28.174Z,69.23
2022-10-23T01:47:56.665Z,69.42
2022-10-23T01:50:25.704Z,69.43
2022-10-23T01:52:59.759Z,69.23
2022-10-23T01:55:27.112Z,69.74
2022-10-23T01:57:56.761Z,69.54
2022-10-23T02:00:27.608Z,69.86
2022-10-23T02:02:56.154Z,69.69
2022-10-23T02:05:31.533Z,69.86
2022-10-23T02:08:01.051Z,70.02
2022-10-23T02:10:38.900Z,70.57
2022-10-23T02:13:09.210Z,70.56
2022-10-23T02:15:48.805Z,70.74
2022-10-23T02:18:18.136Z,71.07
2022-10-23T02:21:06.298Z,71.46
2022-10-23T02:23:41.903Z,71.92
2022-10-23T02:26:22.159Z,71.36
2022-10-23T02:28:58.520Z,72.45
2022-10-23T02:31:26.175Z,72.32
2022-10-23T02:33:53.740Z,72.20
2022-10-23T02:36:20.625Z,72.29
2022-10-23T02:38:47.575Z,72.87
2022-10-23T02:41:41.805Z,72.89
2022-10-23T02:44:39.469Z,73.03
2022-10-23T02:47:17.054Z,73.11
2022-10-23T02:50:16.427Z,73.54
2022-10-23T02:52:47.942Z,73.31
2022-10-23T02:55:19.573Z,73.42
2022-10-23T02:58:04.240Z,73.22
2022-10-23T03:00:36.071Z,72.82
2022-10-23T03:03:12.685Z,72.62
2022-10-23T03:05:41.680Z,72.09
2022-10-23T03:08:10.649Z,71.85
2022-10-23T03:10:38.268Z,72.69
2022-10-23T03:13:07.123Z,72.45
2022-10-23T03:15:41.172Z,71.78
2022-10-23T03:18:14.329Z,71.62
2022-10-23T03:20:46.266Z,72.30
2022-10-23T03:23:15.125Z,71.53
2022-10-23T03:25:43.486Z,71.30
2022-10-23T03:28:20.668Z,71.06
2022-10-23T03:30:47.909Z,71.51
2022-10-23T03:33:14.866Z,70.96
2022-10-23T03:35:41.838Z,70.42
2022-10-23T03:38:09.521Z,70.31
2022-10-23T03:40:36.501Z,70.62
2022-10-23T03:43:03.472Z,69.80
2022-10-23T03:45:30.988Z,68.99
2022-10-23T03:47:58.094Z,68.87
2022-10-23T03:50:25.811Z,69.20
2022-10-23T03:52:54.219Z,68.50
2022-10-23T03:55:21.256Z,67.89
2022-10-23T03:57:48.157Z,68.31
2022-10-23T04:00:15.334Z,67.89
2022-10-23T04:02:47.074Z,68.49
2022-10-23T04:05:14.779Z,68.50
2022-10-23T04:07:50.868Z,68.86
2022-10-23T04:10:18.542Z,67.81
2022-10-23T04:12:45.925Z,67.97
2022-10-23T04:15:13.106Z,67.17
2022-10-23T04:17:42.679Z,67.79
2022-10-23T04:20:10.874Z,67.11
2022-10-23T04:22:38.435Z,67.20
2022-10-23T04:25:05.734Z,66.66
2022-10-23T04:27:34.528Z,67.66
2022-10-23T04:30:03.733Z,66.88
2022-10-23T04:32:31.579Z,65.73
2022-10-23T04:34:59.366Z,66.18
2022-10-23T04:37:26.649Z,65.67
2022-10-23T04:39:53.705Z,63.87
2022-10-23T04:42:20.882Z,63.23
2022-10-23T04:44:47.844Z,61.89
2022-10-23T04:47:14.800Z,60.77
2022-10-23T04:49:59.790Z,56.28
2022-10-23T04:52:58.943Z,51.14
2022-10-23T04:55:58.030Z,48.67
2022-10-23T04:58:35.855Z,47.96
2022-10-23T05:01:02.830Z,48.35
2022-10-23T05:03:29.992Z,48.74
2022-10-23T05:05:57.353Z,49.29
2022-10-23T05:08:31.702Z,49.18
2022-10-23T05:11:17.305Z,49.69
2022-10-23T05:13:47.665Z,50.24
2022-10-23T05:16:36.060Z,48.92
2022-10-23T05:19:05.824Z,48.67
2022-10-23T05:21:35.673Z,49.08
2022-10-23T05:24:05.902Z,49.08
2022-10-23T05:26:33.036Z,49.43
2022-10-23T05:29:06.349Z,49.18
2022-10-23T05:31:35.448Z,48.13
2022-10-23T05:34:13.358Z,47.74
2022-10-23T05:36:45.785Z,47.43
2022-10-23T05:39:15.084Z,47.29
2022-10-23T05:41:50.189Z,47.68
2022-10-23T05:44:22.281Z,47.80
2022-10-23T05:47:08.376Z,48.45
2022-10-23T05:49:54.338Z,48.75
2022-10-23T05:52:49.681Z,48.98
2022-10-23T05:55:49.106Z,49.70
2022-10-23T05:58:30.899Z,49.72
2022-10-23T06:01:13.946Z,49.40
2022-10-23T06:04:05.232Z,48.45
2022-10-23T06:06:59.453Z,49.14
2022-10-23T06:09:26.495Z,48.59
2022-10-23T06:11:57.456Z,48.66
2022-10-23T06:14:24.438Z,48.28
2022-10-23T06:16:52.412Z,48.31
2022-10-23T06:19:20.528Z,48.55
2022-10-23T06:21:51.826Z,48.89
2022-10-23T06:24:19.505Z,48.51
2022-10-23T06:26:55.978Z,48.72
2022-10-23T06:29:42.045Z,48.94
2022-10-23T06:32:09.043Z,49.20
2022-10-23T06:34:37.239Z,49.06
2022-10-23T06:37:06.853Z,49.09
2022-10-23T06:39:49.828Z,49.20
2022-10-23T06:42:19.769Z,49.03
2022-10-23T06:44:56.127Z,49.28
2022-10-23T06:47:45.750Z,49.39
2022-10-23T06:50:49.027Z,48.96
2022-10-23T06:53:24.825Z,49.04
2022-10-23T06:56:01.573Z,49.06
2022-10-23T06:58:29.193Z,48.69
2022-10-23T07:01:07.235Z,48.93
2022-10-23T07:03:35.153Z,48.85
2022-10-23T07:06:08.228Z,48.92
2022-10-23T07:08:36.987Z,48.58
2022-10-23T07:11:13.006Z,48.30
2022-10-23T07:13:40.792Z,48.08
2022-10-23T07:16:17.992Z,47.46
2022-10-23T07:18:46.087Z,47.61
2022-10-23T07:21:40.201Z,47.66
2022-10-23T07:24:37.086Z,47.48
2022-10-23T07:27:16.293Z,47.09
2022-10-23T07:29:44.467Z,46.76
2022-10-23T07:32:11.903Z,46.61
2022-10-23T07:34:59.181Z,47.07
2022-10-23T07:37:31.025Z,46.53
2022-10-23T07:40:00.675Z,46.49
2022-10-23T07:42:27.922Z,46.49
2022-10-23T07:44:55.090Z,46.31
2022-10-23T07:47:22.835Z,46.02
2022-10-23T07:49:51.860Z,45.68
2022-10-23T07:52:20.400Z,45.57
2022-10-23T07:55:10.266Z,45.93
2022-10-23T07:57:41.460Z,45.60
2022-10-23T08:00:22.112Z,45.50
2022-10-23T08:02:56.713Z,45.37
2022-10-23T08:05:23.910Z,45.61
2022-10-23T08:07:57.832Z,45.32
2022-10-23T08:10:25.098Z,45.89
2022-10-23T08:12:52.538Z,45.38
2022-10-23T08:15:25.510Z,45.76
2022-10-23T08:17:59.495Z,45.36
2022-10-23T08:20:48.655Z,45.64
2022-10-23T08:23:18.669Z,44.83
2022-10-23T08:25:46.902Z,45.33
2022-10-23T08:28:18.007Z,45.19
2022-10-23T08:30:54.509Z,45.33
2022-10-23T08:33:23.439Z,44.74
2022-10-23T08:35:51.065Z,44.27
2022-10-23T08:38:30.427Z,44.40
2022-10-23T08:40:58.146Z,44.16
2022-10-23T08:43:49.296Z,44.44
2022-10-23T08:46:37.648Z,43.28
2022-10-23T08:49:57.691Z,43.02
2022-10-23T08:52:52.403Z,42.44
2022-10-23T08:55:35.915Z,42.06
2022-10-23T08:58:46.035Z,41.30
2022-10-23T09:01:45.340Z,41.00
2022-10-23T09:04:14.313Z,40.03
2022-10-23T09:07:16.177Z,38.86
2022-10-23T09:10:02.770Z,38.88
2022-10-23T09:12:31.906Z,38.39
2022-10-23T09:15:28.481Z,37.40
2022-10-23T09:18:02.143Z,38.71
2022-10-23T09:20:34.443Z,38.90
2022-10-23T09:23:23.786Z,38.84
2022-10-23T09:25:58.078Z,38.35
2022-10-23T09:28:39.731Z,38.22
2022-10-23T09:31:13.008Z,38.63
2022-10-23T09:33:41.747Z,37.82
2022-10-23T09:36:12.669Z,37.60
2022-10-23T09:38:45.615Z,37.35
2022-10-23T09:41:29.017Z,37.64
2022-10-23T09:44:23.168Z,37.44
2022-10-23T09:46:54.012Z,36.47
2022-10-23T09:49:32.463Z,37.28
2022-10-23T09:52:02.235Z,36.69
2022-10-23T09:54:39.122Z,36.60
2022-10-23T09:57:20.962Z,37.00
2022-10-23T09:59:53.344Z,37.47
2022-10-23T10:02:28.220Z,38.21
2022-10-23T10:05:26.498Z,35.80
2022-10-23T10:08:19.928Z,36.08
2022-10-23T10:11:12.413Z,36.01
2022-10-23T10:13:58.705Z,35.53
2022-10-23T10:16:44.421Z,36.53
2022-10-23T10:19:48.669Z,36.99
2022-10-23T10:22:46.667Z,35.98
2022-10-23T10:25:38.929Z,35.46
2022-10-23T10:28:25.140Z,36.33
2022-10-23T10:31:05.153Z,36.63
2022-10-23T10:33:37.975Z,36.48
2022-10-23T10:36:10.963Z,34.77
2022-10-23T10:38:47.976Z,35.48
2022-10-23T10:41:38.418Z,36.49
2022-10-23T10:44:30.108Z,35.85
2022-10-23T10:47:05.670Z,35.54
2022-10-23T10:50:18.860Z,35.13
2022-10-23T10:53:33.314Z,35.20
2022-10-23T10:56:04.091Z,35.79
2022-10-23T10:59:03.871Z,35.81
2022-10-23T11:01:39.333Z,35.31
2022-10-23T11:04:46.177Z,35.71
2022-10-23T11:07:17.410Z,34.97
2022-10-23T11:09:44.614Z,34.99
2022-10-23T11:12:24.046Z,34.67
2022-10-23T11:14:51.461Z,35.26
2022-10-23T11:17:25.377Z,35.17
2022-10-23T11:20:24.586Z,34.67
2022-10-23T11:23:13.594Z,34.06
2022-10-23T11:25:49.308Z,34.50
2022-10-23T11:28:37.395Z,34.12
2022-10-23T11:31:23.305Z,34.24
2022-10-23T11:34:24.339Z,34.41
2022-10-23T11:36:56.951Z,34.59
2022-10-23T11:39:27.865Z,34.38
2022-10-23T11:42:14.879Z,34.92
2022-10-23T11:44:45.302Z,35.41
2022-10-23T11:47:31.327Z,34.44
2022-10-23T11:50:06.720Z,34.64
2022-10-23T11:52:45.456Z,34.35
2022-10-23T11:55:22.922Z,34.22
2022-10-23T11:58:10.471Z,34.62
2022-10-23T12:00:51.258Z,34.32
2022-10-23T12:03:43.291Z,34.31
2022-10-23T12:06:30.135Z,34.72
2022-10-23T12:12:01.421Z,34.78
2022-10-23T12:14:32.406Z,34.87
2022-10-23T12:16:59.916Z,34.88
2022-10-23T12:19:30.298Z,35.34
2022-10-23T12:22:00.859Z,34.60
2022-10-23T12:24:51.600Z,35.20
2022-10-23T12:27:18.443Z,34.99
2022-10-23T12:29:54.433Z,34.86
2022-10-23T12:32:59.747Z,34.52
2022-10-23T12:36:04.703Z,35.13
2022-10-23T12:38:35.312Z,35.16
2022-10-23T12:41:14.389Z,34.87
2022-10-23T12:43:45.714Z,35.64
2022-10-23T12:46:41.174Z,35.77
2022-10-23T12:49:22.781Z,34.97
2022-10-23T12:52:05.535Z,34.88
2022-10-23T12:54:38.338Z,36.32
2022-10-23T12:57:30.415Z,37.87
2022-10-23T13:00:13.323Z,38.48
2022-10-23T13:02:40.547Z,38.57
2022-10-23T13:05:13.296Z,38.83
2022-10-23T13:07:46.417Z,37.68
2022-10-23T13:10:18.741Z,36.76
2022-10-23T13:13:20.274Z,38.48
2022-10-23T13:15:47.725Z,38.46
2022-10-23T13:18:15.969Z,38.85
2022-10-23T13:21:03.485Z,39.10
2022-10-23T13:23:33.526Z,39.46
2022-10-23T13:26:01.711Z,39.38
2022-10-23T13:28:36.278Z,39.46
2022-10-23T13:31:35.745Z,39.54
2022-10-23T13:34:06.562Z,39.81
2022-10-23T13:36:57.750Z,40.06
2022-10-23T13:39:28.231Z,40.01
2022-10-23T13:41:55.279Z,39.98
2022-10-23T13:44:27.537Z,40.11
2022-10-23T13:47:07.417Z,40.50
2022-10-23T13:49:34.689Z,40.61
2022-10-23T13:52:01.636Z,40.85
2022-10-23T13:54:29.627Z,40.50
2022-10-23T13:56:59.319Z,40.31
2022-10-23T13:59:26.282Z,40.89
2022-10-23T14:01:54.548Z,41.03
2022-10-23T14:04:22.136Z,40.62
2022-10-23T14:06:49.331Z,41.43
2022-10-23T14:09:18.367Z,40.94
2022-10-23T14:11:46.077Z,41.27
2022-10-23T14:14:13.652Z,41.29
2022-10-23T14:16:40.574Z,41.41
2022-10-23T14:19:08.919Z,41.38
2022-10-23T14:21:36.116Z,41.67
2022-10-23T14:24:03.914Z,41.60
2022-10-23T14:26:32.953Z,41.42
2022-10-23T14:29:04.164Z,41.65
2022-10-23T14:31:35.506Z,41.74
2022-10-23T14:34:02.432Z,41.65
2022-10-23T14:36:38.680Z,41.85
2022-10-23T14:39:16.924Z,42.30
2022-10-23T14:41:45.326Z,42.14
2022-10-23T14:44:12.426Z,41.93
2022-10-23T14:46:39.414Z,42.19
2022-10-23T14:49:06.330Z,42.37
2022-10-23T14:51:33.827Z,42.61
2022-10-23T14:54:05.668Z,42.70
2022-10-23T14:56:39.481Z,42.59
2022-10-23T14:59:10.896Z,42.98
2022-10-23T15:01:43.756Z,43.02
2022-10-23T15:04:15.150Z,43.32
2022-10-23T15:06:42.811Z,44.25
2022-10-23T15:09:11.219Z,44.74
2022-10-23T15:11:40.874Z,45.05
2022-10-23T15:14:08.154Z,45.10
2022-10-23T15:16:44.113Z,45.29
2022-10-23T15:19:17.094Z,45.70
2022-10-23T15:21:46.981Z,45.47
2022-10-23T15:24:18.766Z,45.46
2022-10-23T15:26:47.421Z,45.67
2022-10-23T15:29:15.009Z,46.21
2022-10-23T15:31:43.577Z,46.60
2022-10-23T15:34:22.258Z,46.54
2022-10-23T15:36:52.181Z,46.65
2022-10-23T15:39:23.304Z,46.79
2022-10-23T15:41:52.861Z,46.62
2022-10-23T15:44:23.411Z,46.69
2022-10-23T15:46:54.226Z,46.84
2022-10-23T15:49:22.258Z,47.00
2022-10-23T15:51:49.163Z,47.27
2022-10-23T15:54:20.249Z,47.25
2022-10-23T15:56:51.307Z,47.42
2022-10-23T15:59:20.580Z,47.50
2022-10-23T16:01:48.258Z,47.14
2022-10-23T16:04:17.909Z,47.05
2022-10-23T16:06:45.095Z,47.17
2022-10-23T16:09:13.817Z,47.56
2022-10-23T16:11:42.529Z,47.68
2022-10-23T16:14:14.139Z,47.90
2022-10-23T16:16:42.466Z,47.60
2022-10-23T16:19:10.412Z,47.54
2022-10-23T16:21:37.822Z,47.54
2022-10-23T16:24:07.655Z,47.58
2022-10-23T16:26:36.259Z,47.52
2022-10-23T16:29:07.928Z,48.04
2022-10-23T16:31:35.561Z,48.13
2022-10-23T16:34:04.759Z,48.27
2022-10-23T16:36:35.595Z,48.00
2022-10-23T16:39:23.490Z,48.32
2022-10-23T16:42:09.187Z,48.35
2022-10-23T16:45:09.527Z,48.72
2022-10-23T16:47:36.498Z,48.37
2022-10-23T16:50:08.427Z,48.92
2022-10-23T16:52:35.452Z,48.62
2022-10-23T16:55:02.485Z,48.89
2022-10-23T16:57:31.466Z,48.72
2022-10-23T16:59:58.581Z,48.72
2022-10-23T17:02:27.675Z,48.72
2022-10-23T17:04:55.635Z,48.59
2022-10-23T17:07:24.418Z,48.40
2022-10-23T17:09:51.657Z,48.58
2022-10-23T17:12:22.245Z,48.27
2022-10-23T17:14:49.182Z,48.63
2022-10-23T17:17:17.205Z,48.20
2022-10-23T17:19:46.204Z,48.12
2022-10-23T17:22:14.432Z,48.00
2022-10-23T17:24:44.311Z,47.79
2022-10-23T17:27:14.683Z,47.69
2022-10-23T17:29:42.412Z,47.98
2022-10-23T17:32:12.302Z,47.38
2022-10-23T17:34:39.524Z,46.00
2022-10-23T17:37:08.026Z,45.58
2022-10-23T17:39:36.072Z,44.03
2022-10-23T17:42:02.981Z,43.30
2022-10-23T17:44:30.233Z,43.53
2022-10-23T17:46:58.350Z,44.13
2022-10-23T17:49:26.203Z,44.07
2022-10-23T17:51:55.314Z,44.18
2022-10-23T17:54:24.369Z,44.87
2022-10-23T17:56:51.425Z,44.88
2022-10-23T17:59:19.738Z,45.07
2022-10-23T18:01:48.570Z,45.11
2022-10-23T18:04:17.986Z,45.16
2022-10-23T18:06:48.532Z,45.76
2022-10-23T18:09:16.371Z,45.17
2022-10-23T18:11:48.827Z,45.27
2022-10-23T18:14:19.184Z,45.00
2022-10-23T18:16:46.964Z,45.18
2022-10-23T18:19:18.209Z,46.05
2022-10-23T18:21:45.579Z,46.20
2022-10-23T18:24:12.810Z,45.92
2022-10-23T18:26:42.686Z,46.05
2022-10-23T18:29:12.396Z,45.55
2022-10-23T18:31:39.681Z,45.74
2022-10-23T18:34:16.204Z,46.38
2022-10-23T18:36:44.113Z,46.85
2022-10-23T18:39:14.322Z,46.77
2022-10-23T18:41:43.292Z,46.71
2022-10-23T18:44:17.375Z,47.15
2022-10-23T18:46:49.017Z,47.07
2022-10-23T18:49:18.401Z,47.43
2022-10-23T18:51:47.636Z,47.10
2022-10-23T18:54:16.280Z,47.18
2022-10-23T18:56:45.835Z,47.29
2022-10-23T18:59:17.968Z,47.55
2022-10-23T19:01:45.244Z,48.50
2022-10-23T19:04:16.701Z,48.43
2022-10-23T19:06:45.180Z,49.14
2022-10-23T19:09:16.513Z,49.23
2022-10-23T19:11:44.164Z,49.62
2022-10-23T19:14:15.070Z,49.59
2022-10-23T19:16:53.422Z,49.62
2022-10-23T19:19:25.793Z,49.92
2022-10-23T19:21:55.228Z,50.06
2022-10-23T19:24:39.770Z,50.50
2022-10-23T19:27:07.598Z,50.66
2022-10-23T19:29:40.196Z,51.53
2022-10-23T19:32:07.627Z,52.32
2022-10-23T19:34:35.121Z,51.70
2022-10-23T19:37:02.199Z,51.60
2022-10-23T19:39:29.944Z,51.23
2022-10-23T19:41:57.828Z,50.89
2022-10-23T19:44:25.163Z,51.22
2022-10-23T19:46:52.387Z,51.16
2022-10-23T19:49:19.618Z,52.61
2022-10-23T19:51:51.217Z,53.38
2022-10-23T19:54:20.386Z,53.67
2022-10-23T19:56:48.075Z,53.27
2022-10-23T19:59:16.761Z,53.54
2022-10-23T20:01:47.856Z,53.52
2022-10-23T20:04:17.794Z,54.34
2022-10-23T20:06:44.807Z,54.94
2022-10-23T20:09:11.772Z,55.48
2022-10-23T20:11:41.045Z,55.82
2022-10-23T20:14:08.407Z,55.95
2022-10-23T20:16:38.099Z,55.80
2022-10-23T20:19:08.004Z,55.14
2022-10-23T20:21:36.638Z,54.84
2022-10-23T20:24:04.089Z,55.12
2022-10-23T20:26:33.556Z,55.30
2022-10-23T20:29:01.554Z,55.32
2022-10-23T20:31:30.770Z,55.00
2022-10-23T20:33:58.366Z,54.71
2022-10-23T20:36:29.905Z,55.00
2022-10-23T20:38:58.458Z,54.51
2022-10-23T20:41:27.139Z,54.52
2022-10-23T20:43:58.245Z,55.17
2022-10-23T20:46:26.093Z,55.43
2022-10-23T20:48:54.175Z,55.71
2022-10-23T20:51:23.333Z,56.00
2022-10-23T20:53:54.581Z,56.71
2022-10-23T20:56:31.419Z,57.26
2022-10-23T20:59:03.846Z,57.11
2022-10-23T21:01:33.431Z,57.81
2022-10-23T21:04:03.323Z,58.87
2022-10-23T21:06:51.524Z,60.20
2022-10-23T21:09:22.550Z,59.23
2022-10-23T21:11:49.882Z,59.63
2022-10-23T21:14:17.261Z,59.19
2022-10-23T21:16:47.382Z,58.49
2022-10-23T21:19:16.051Z,58.26
2022-10-23T21:21:43.836Z,57.85
2022-10-23T21:24:15.385Z,56.90
2022-10-23T21:26:43.420Z,57.72
2022-10-23T21:29:20.028Z,57.03
2022-10-23T21:31:59.532Z,56.48
2022-10-23T21:34:27.391Z,56.47
2022-10-23T21:37:11.865Z,56.41
2022-10-23T21:39:39.874Z,56.73
2022-10-23T21:42:10.219Z,57.33
2022-10-23T21:44:40.703Z,57.30
2022-10-23T21:47:07.803Z,57.31
2022-10-23T21:49:34.915Z,58.04
2022-10-23T21:52:01.810Z,58.33
2022-10-23T21:54:28.690Z,58.59
2022-10-23T21:56:55.688Z,59.06
2022-10-23T21:59:27.672Z,58.21
2022-10-23T22:02:00.077Z,57.85
2022-10-23T22:04:28.883Z,57.28
2022-10-23T22:06:56.009Z,56.69
2022-10-23T22:09:23.537Z,56.93
2022-10-23T22:11:54.555Z,56.98
2022-10-23T22:14:22.535Z,56.69
2022-10-23T22:16:49.747Z,57.44
2022-10-23T22:19:17.674Z,57.24
2022-10-23T22:21:44.626Z,58.19
2022-10-23T22:24:11.887Z,59.55
2022-10-23T22:26:42.973Z,58.85
2022-10-23T22:29:15.511Z,59.51
2022-10-23T22:31:45.630Z,59.48
2022-10-23T22:37:15.765Z,60.86
2022-10-23T22:39:42.759Z,61.45
2022-10-23T22:42:10.121Z,61.90
2022-10-23T22:44:37.265Z,62.95
2022-10-23T22:47:04.724Z,63.20
2022-10-23T22:49:31.667Z,62.49
2022-10-23T22:51:58.616Z,63.08
2022-10-23T22:54:25.489Z,63.09
2022-10-23T22:56:54.146Z,62.75
2022-10-23T22:59:21.022Z,61.28
2022-10-23T23:01:49.484Z,61.24
2022-10-23T23:07:12.152Z,59.45
2022-10-23T23:09:42.454Z,59.44
2022-10-23T23:12:11.999Z,58.74
2022-10-23T23:14:41.061Z,58.07
2022-10-23T23:17:08.794Z,59.62
2022-10-23T23:19:36.005Z,59.34
2022-10-23T23:22:04.076Z,59.67
2022-10-23T23:24:32.237Z,60.23
2022-10-23T23:26:59.230Z,60.10
2022-10-23T23:29:28.382Z,60.00
2022-10-23T23:31:55.391Z,59.48
2022-10-23T23:34:22.222Z,59.95
2022-10-23T23:36:49.299Z,59.29
2022-10-23T23:39:16.797Z,59.28
2022-10-23T23:41:43.640Z,59.62
2022-10-23T23:44:10.562Z,60.16
2022-10-23T23:46:40.104Z,61.14
2022-10-23T23:49:06.949Z,61.94
2022-10-23T23:51:33.814Z,61.79
2022-10-23T23:54:00.699Z,61.94
2022-10-23T23:56:28.187Z,62.53
2022-10-23T23:58:55.235Z,62.47
